Time;durP1;ratioP1;P1;durP2;ratioP2;P2;SDS_P1;SDS_P2;PMS_P1;PMS_P2;Temp;Humidity;BMP_temperature;BMP_pressure;BME280_temperature;BME280_humidity;BME280_pressure;Samples;Min_cycle;Max_cycle;Signal;HPM_P1;HPM_P2
2023/12/17 00:00:30;;;;;;;10.27;6.20;;;16.20;99.90;;;;;;4594944;19;20031;-75
2023/12/17 00:02:25;;;;;;;9.60;5.90;;;16.20;99.90;;;;;;4594854;19;20016;-75
2023/12/17 00:04:00;;;;;;;9.55;6.45;;;16.20;99.90;;;;;;4594915;19;20007;-75
2023/12/17 00:05:34;;;;;;;9.02;5.95;;;16.20;99.90;;;;;;4594271;19;20340;-75
2023/12/17 00:07:10;;;;;;;7.40;5.15;;;16.20;99.90;;;;;;4595005;19;20069;-75
2023/12/17 00:08:43;;;;;;;8.18;5.40;;;16.20;99.90;;;;;;4595102;19;20003;-75
2023/12/17 00:10:18;;;;;;;8.63;5.82;;;16.20;99.90;;;;;;4594819;19;19999;-75
2023/12/17 00:11:53;;;;;;;11.10;5.95;;;16.20;99.90;;;;;;4594245;19;20002;-75
2023/12/17 00:13:28;;;;;;;10.35;6.63;;;16.20;99.90;;;;;;4595032;19;20009;-75
2023/12/17 00:15:04;;;;;;;9.65;6.45;;;16.20;99.90;;;;;;4594879;19;20010;-75
2023/12/17 00:16:39;;;;;;;8.90;5.85;;;16.20;99.90;;;;;;4593447;19;20007;-75
2023/12/17 00:18:14;;;;;;;9.00;5.57;;;16.20;99.90;;;;;;4594316;19;19998;-75
2023/12/17 00:19:48;;;;;;;7.78;5.72;;;16.20;99.90;;;;;;4594672;19;20006;-75
2023/12/17 00:21:23;;;;;;;8.88;5.80;;;16.20;99.90;;;;;;4594661;19;20014;-75
2023/12/17 00:22:57;;;;;;;9.48;5.55;;;16.20;99.90;;;;;;4594587;19;20006;-75
2023/12/17 00:24:31;;;;;;;7.65;5.07;;;16.20;99.90;;;;;;4594544;19;20011;-75
2023/12/17 00:26:08;;;;;;;8.40;5.75;;;16.20;99.90;;;;;;4592504;19;20334;-75
2023/12/17 00:27:43;;;;;;;10.73;5.90;;;16.20;99.90;;;;;;4594233;19;20002;-75
2023/12/17 00:29:18;;;;;;;8.98;5.53;;;16.20;99.90;;;;;;4594759;19;20006;-75
2023/12/17 00:30:54;;;;;;;7.70;5.45;;;16.20;99.90;;;;;;4594703;19;20010;-75
2023/12/17 00:32:28;;;;;;;7.38;5.38;;;16.20;99.90;;;;;;4593532;19;20014;-75
2023/12/17 00:34:02;;;;;;;8.00;5.40;;;16.20;99.90;;;;;;4594345;19;19998;-75
2023/12/17 00:35:39;;;;;;;8.95;5.25;;;16.20;99.90;;;;;;4594095;19;20247;-75
2023/12/17 00:37:14;;;;;;;8.10;4.88;;;16.10;99.90;;;;;;4594294;19;20003;-75
2023/12/17 00:38:49;;;;;;;7.85;5.68;;;16.20;99.90;;;;;;4593209;19;20006;-75
2023/12/17 00:40:26;;;;;;;7.38;5.28;;;16.20;99.90;;;;;;4593936;19;20032;-75
2023/12/17 00:42:01;;;;;;;7.78;4.97;;;16.20;99.90;;;;;;4594236;19;20443;-75
2023/12/17 00:43:36;;;;;;;7.78;5.05;;;16.20;99.90;;;;;;4594420;19;20002;-75
2023/12/17 00:45:11;;;;;;;7.70;5.13;;;16.20;99.90;;;;;;4593970;19;20011;-75
2023/12/17 00:46:46;;;;;;;7.50;5.13;;;16.20;99.90;;;;;;4594072;19;20014;-75
2023/12/17 00:48:20;;;;;;;9.40;5.43;;;16.10;99.90;;;;;;4594076;19;20002;-77
2023/12/17 00:49:56;;;;;;;7.93;5.20;;;16.20;99.90;;;;;;4593980;19;20032;-74
2023/12/17 00:51:30;;;;;;;8.50;5.32;;;16.20;99.90;;;;;;4593806;19;20002;-74
2023/12/17 00:53:04;;;;;;;10.02;6.45;;;16.10;99.90;;;;;;4593900;19;20385;-76
2023/12/17 00:54:39;;;;;;;8.23;5.47;;;16.20;99.90;;;;;;4592647;19;20457;-80
2023/12/17 00:56:13;;;;;;;9.75;5.78;;;16.20;99.90;;;;;;4592421;19;20010;-80
2023/12/17 00:57:47;;;;;;;13.18;6.05;;;16.20;99.90;;;;;;4592863;19;20069;-74
2023/12/17 00:59:24;;;;;;;10.15;5.55;;;16.20;99.90;;;;;;4593571;19;20007;-76
2023/12/17 01:16:39;;;;;;;11.27;5.13;;;16.40;99.90;;;;;;4560503;19;20060;-77
2023/12/17 01:18:15;;;;;;;8.52;5.13;;;16.40;99.90;;;;;;4593375;19;20007;-77
2023/12/17 01:19:49;;;;;;;8.50;4.65;;;16.50;99.90;;;;;;4593726;19;20021;-77
2023/12/17 01:21:23;;;;;;;9.65;5.22;;;16.60;99.90;;;;;;4593668;19;20002;-77
2023/12/17 01:22:59;;;;;;;8.07;4.60;;;16.70;99.90;;;;;;4592129;19;20021;-77
2023/12/17 01:24:33;;;;;;;9.65;5.15;;;16.80;99.90;;;;;;4592980;19;20307;-77
2023/12/17 01:26:08;;;;;;;8.93;5.22;;;16.80;99.90;;;;;;4593271;19;20002;-77
2023/12/17 01:27:43;;;;;;;7.80;4.72;;;16.90;99.90;;;;;;4593325;19;20026;-77
2023/12/17 01:29:17;;;;;;;8.27;5.10;;;17.00;99.90;;;;;;4593211;19;20313;-77
2023/12/17 01:30:51;;;;;;;7.35;4.43;;;17.10;99.90;;;;;;4593175;19;20308;-77
2023/12/17 01:32:27;;;;;;;7.18;4.15;;;17.20;99.90;;;;;;4592359;19;20007;-77
2023/12/17 01:34:01;;;;;;;7.57;4.10;;;17.20;99.90;;;;;;4593073;19;20007;-77
2023/12/17 01:35:35;;;;;;;6.38;4.43;;;17.20;99.90;;;;;;4592546;19;20006;-77
2023/12/17 01:37:11;;;;;;;8.43;4.55;;;17.30;99.90;;;;;;4592159;19;20014;-77
2023/12/17 01:38:46;;;;;;;6.68;3.80;;;17.30;99.90;;;;;;4593007;19;20007;-76
2023/12/17 01:40:20;;;;;;;6.40;3.75;;;17.40;99.90;;;;;;4593282;19;20290;-77
2023/12/17 01:41:55;;;;;;;6.90;3.38;;;17.50;99.90;;;;;;4593026;19;20025;-76
2023/12/17 01:43:30;;;;;;;6.18;3.50;;;17.60;99.90;;;;;;4592960;19;20007;-75
2023/12/17 01:45:04;;;;;;;6.45;3.47;;;17.70;99.90;;;;;;4592897;19;20006;-77
2023/12/17 01:46:40;;;;;;;7.32;4.18;;;17.90;99.90;;;;;;4591169;19;20010;-77
2023/12/17 01:48:14;;;;;;;7.13;3.38;;;18.00;99.90;;;;;;4591487;19;20387;-75
2023/12/17 01:49:48;;;;;;;6.05;3.17;;;18.10;99.90;;;;;;4592455;19;19999;-76
2023/12/17 01:51:24;;;;;;;5.13;3.85;;;18.20;99.90;;;;;;4591570;19;20085;-76
2023/12/17 01:53:00;;;;;;;7.30;3.80;;;18.20;99.90;;;;;;4592403;19;20003;-76
2023/12/17 01:54:34;;;;;;;5.60;3.78;;;18.30;99.90;;;;;;4592613;19;20414;-76
2023/12/17 01:56:11;;;;;;;7.78;4.03;;;18.30;99.90;;;;;;4592636;19;20025;-76
2023/12/17 01:57:45;;;;;;;6.18;3.40;;;18.30;99.90;;;;;;4592917;19;20437;-76
2023/12/17 01:59:19;;;;;;;6.85;3.92;;;18.30;99.90;;;;;;4592855;19;20006;-75
2023/12/17 02:00:55;;;;;;;4.45;3.42;;;18.30;99.90;;;;;;4592739;19;20069;-76
2023/12/17 02:02:29;;;;;;;4.80;3.30;;;18.30;99.90;;;;;;4591423;19;20462;-76
2023/12/17 02:04:05;;;;;;;7.45;3.40;;;18.30;99.90;;;;;;4592137;19;19999;-76
2023/12/17 02:05:41;;;;;;;6.93;4.00;;;18.30;99.90;;;;;;4592804;19;20022;-76
2023/12/17 02:07:15;;;;;;;5.07;3.25;;;18.30;99.90;;;;;;4591553;19;20010;-76
2023/12/17 02:08:49;;;;;;;5.07;3.42;;;18.30;99.90;;;;;;4592669;19;20002;-76
2023/12/17 02:10:25;;;;;;;6.28;3.67;;;18.40;99.90;;;;;;4592452;19;20014;-76
2023/12/17 02:12:01;;;;;;;6.63;3.63;;;18.40;99.90;;;;;;4591857;19;20425;-76
2023/12/17 02:13:35;;;;;;;6.07;3.33;;;18.30;99.90;;;;;;4592323;19;20346;-76
2023/12/17 02:15:11;;;;;;;6.45;3.40;;;18.30;99.90;;;;;;4592331;19;20007;-76
2023/12/17 02:16:45;;;;;;;5.57;3.28;;;18.30;99.90;;;;;;4591305;19;20006;-76
2023/12/17 02:18:20;;;;;;;6.43;3.45;;;18.20;99.90;;;;;;4592248;19;20007;-76
2023/12/17 02:19:55;;;;;;;5.53;3.28;;;18.30;99.90;;;;;;4591227;19;20275;-76
2023/12/17 02:21:29;;;;;;;4.82;3.38;;;18.20;99.90;;;;;;4591543;19;20016;-76
2023/12/17 02:23:04;;;;;;;6.32;3.35;;;18.20;99.90;;;;;;4592143;19;19998;-76
2023/12/17 02:24:39;;;;;;;6.55;4.32;;;18.20;99.90;;;;;;4590879;19;20451;-76
2023/12/17 02:26:13;;;;;;;7.05;3.63;;;18.10;99.90;;;;;;4590572;19;20023;-76
2023/12/17 02:27:47;;;;;;;7.18;3.47;;;18.10;99.90;;;;;;4591664;19;20026;-76
2023/12/17 02:29:24;;;;;;;7.43;3.58;;;18.10;99.90;;;;;;4592141;19;19999;-76
2023/12/17 02:30:59;;;;;;;9.10;3.97;;;18.00;99.90;;;;;;4592245;19;20010;-76
2023/12/17 02:32:34;;;;;;;7.53;3.60;;;18.00;99.90;;;;;;4590957;19;20007;-76
2023/12/17 02:34:10;;;;;;;7.95;4.20;;;18.00;99.90;;;;;;4592024;19;20006;-76
2023/12/17 02:35:44;;;;;;;7.13;3.55;;;18.00;99.90;;;;;;4591949;19;20066;-76
2023/12/17 02:37:18;;;;;;;6.55;3.63;;;17.90;99.90;;;;;;4591094;19;20011;-76
2023/12/17 02:38:55;;;;;;;7.88;3.97;;;17.90;99.90;;;;;;4591932;19;20007;-76
2023/12/17 02:40:30;;;;;;;6.85;3.58;;;17.90;99.90;;;;;;4591862;19;20002;-76
2023/12/17 02:42:05;;;;;;;8.20;4.13;;;17.80;99.90;;;;;;4591624;19;20002;-76
2023/12/17 02:43:47;;;;;;;6.40;3.63;;;17.80;99.90;;;;;;4591680;19;20474;-76
2023/12/17 02:45:21;;;;;;;6.13;3.67;;;17.80;99.90;;;;;;4591799;19;19994;-76
2023/12/17 02:46:55;;;;;;;6.88;3.92;;;17.70;99.90;;;;;;4591006;19;20446;-76
2023/12/17 02:48:31;;;;;;;8.63;4.13;;;17.70;99.90;;;;;;4591808;19;20007;-76
2023/12/17 02:50:06;;;;;;;7.70;3.92;;;17.70;99.90;;;;;;4591962;19;19999;-76
2023/12/17 02:51:41;;;;;;;8.50;3.88;;;17.70;99.90;;;;;;4590394;19;20006;-76
2023/12/17 02:53:18;;;;;;;7.82;4.05;;;17.70;99.90;;;;;;4591420;19;20002;-76
2023/12/17 02:54:54;;;;;;;10.63;4.43;;;17.60;99.90;;;;;;4591876;19;20002;-76
2023/12/17 02:56:28;;;;;;;7.53;3.97;;;17.60;99.90;;;;;;4591520;19;20055;-76
2023/12/17 02:58:05;;;;;;;9.98;4.68;;;17.60;99.90;;;;;;4591596;19;19994;-76
2023/12/17 02:59:41;;;;;;;7.97;4.18;;;17.60;99.90;;;;;;4590228;19;19998;-76
2023/12/17 03:01:16;;;;;;;9.35;4.38;;;17.60;99.90;;;;;;4591214;19;19994;-76
2023/12/17 03:02:52;;;;;;;7.40;4.28;;;17.50;99.90;;;;;;4591783;19;20006;-76
2023/12/17 03:04:26;;;;;;;8.07;3.72;;;17.50;99.90;;;;;;4591718;19;20004;-76
2023/12/17 03:06:00;;;;;;;8.38;4.68;;;17.50;99.90;;;;;;4591437;19;19999;-76
2023/12/17 03:07:35;;;;;;;9.43;4.10;;;17.50;99.90;;;;;;4590503;19;20007;-76
2023/12/17 03:09:10;;;;;;;9.98;4.50;;;17.50;99.90;;;;;;4591416;19;20015;-76
2023/12/17 03:10:45;;;;;;;11.85;4.97;;;17.50;99.90;;;;;;4590120;19;19999;-76
2023/12/17 03:12:21;;;;;;;11.82;5.18;;;17.50;99.90;;;;;;4590391;19;20002;-76
2023/12/17 03:13:56;;;;;;;9.95;4.70;;;17.40;99.90;;;;;;4591388;19;19999;-76
2023/12/17 03:15:30;;;;;;;9.27;3.72;;;17.40;99.90;;;;;;4591375;19;19999;-76
2023/12/17 03:17:05;;;;;;;9.75;4.53;;;17.40;99.90;;;;;;4588882;19;20033;-76
2023/12/17 03:18:39;;;;;;;10.43;4.15;;;17.40;99.90;;;;;;4591023;19;20005;-76
2023/12/17 03:20:16;;;;;;;8.10;4.10;;;17.40;99.90;;;;;;4591246;19;19999;-76
2023/12/17 03:21:51;;;;;;;7.68;4.28;;;17.40;99.90;;;;;;4591581;19;20298;-76
2023/12/17 03:23:26;;;;;;;9.43;4.00;;;17.40;99.90;;;;;;4591226;19;20002;-76
2023/12/17 03:25:01;;;;;;;8.95;4.35;;;17.30;99.90;;;;;;4591442;19;20027;-76
2023/12/17 03:26:36;;;;;;;7.47;4.28;;;17.40;99.90;;;;;;4590714;19;20082;-76
2023/12/17 03:28:10;;;;;;;9.32;4.10;;;17.30;99.90;;;;;;4591415;19;20002;-76
2023/12/17 03:29:44;;;;;;;8.32;4.65;;;17.30;99.90;;;;;;4591187;19;20077;-76
2023/12/17 03:31:20;;;;;;;8.57;4.30;;;17.30;99.90;;;;;;4591507;19;20287;-76
2023/12/17 03:32:55;;;;;;;10.75;5.03;;;17.30;99.90;;;;;;4594075;19;20022;-76
2023/12/17 03:34:30;;;;;;;10.75;4.55;;;17.30;99.90;;;;;;4595550;19;20042;-76
2023/12/17 03:36:06;;;;;;;10.45;4.25;;;17.30;99.90;;;;;;4595590;19;20006;-76
2023/12/17 03:37:41;;;;;;;10.10;3.90;;;17.30;99.90;;;;;;4595599;19;20195;-76
2023/12/17 03:39:15;;;;;;;8.05;3.75;;;17.30;99.90;;;;;;4595556;19;20014;-76
2023/12/17 03:40:50;;;;;;;9.15;4.18;;;17.30;99.90;;;;;;4595822;19;20009;-76
2023/12/17 03:42:24;;;;;;;7.05;3.83;;;17.30;99.90;;;;;;4595466;19;19999;-76
2023/12/17 03:43:58;;;;;;;9.68;4.63;;;17.20;99.90;;;;;;4595433;19;19999;-76
2023/12/17 03:45:35;;;;;;;8.20;3.65;;;17.20;99.90;;;;;;4595459;19;20003;-76
2023/12/17 03:47:10;;;;;;;8.57;4.47;;;17.20;99.90;;;;;;4594047;19;20084;-76
2023/12/17 03:48:45;;;;;;;6.60;3.75;;;17.20;99.90;;;;;;4595529;19;20003;-76
2023/12/17 03:50:20;;;;;;;9.43;4.30;;;17.20;99.90;;;;;;4595316;19;20007;-76
2023/12/17 03:51:54;;;;;;;9.85;4.47;;;17.20;99.90;;;;;;4595011;19;20437;-76
2023/12/17 03:53:29;;;;;;;8.60;4.25;;;17.20;99.90;;;;;;4595224;19;20016;-76
2023/12/17 03:55:04;;;;;;;8.27;4.07;;;17.20;99.90;;;;;;4595537;19;20014;-76
2023/12/17 03:56:38;;;;;;;12.75;5.38;;;17.20;99.90;;;;;;4594774;19;20007;-76
2023/12/17 03:58:12;;;;;;;10.77;5.05;;;17.10;99.90;;;;;;4595113;19;20410;-76
2023/12/17 03:59:49;;;;;;;10.73;4.50;;;17.10;99.90;;;;;;4595174;19;20010;-76
2023/12/17 04:01:23;;;;;;;8.85;4.40;;;17.10;99.90;;;;;;4595005;19;20002;-76
2023/12/17 04:02:57;;;;;;;8.95;3.85;;;17.10;99.90;;;;;;4595274;19;20382;-76
2023/12/17 04:04:32;;;;;;;10.80;4.45;;;17.10;99.90;;;;;;4595059;19;20074;-76
2023/12/17 04:06:07;;;;;;;10.20;4.75;;;17.10;99.90;;;;;;4593636;19;20318;-76
2023/12/17 04:07:41;;;;;;;10.93;4.88;;;17.10;99.90;;;;;;4593895;19;20303;-76
2023/12/17 04:09:19;;;;;;;10.10;4.57;;;17.10;99.90;;;;;;4594565;19;20006;-76
2023/12/17 04:10:53;;;;;;;9.00;4.95;;;17.10;99.90;;;;;;4594921;19;20010;-76
2023/12/17 04:12:28;;;;;;;9.63;4.65;;;17.10;99.90;;;;;;4592513;19;20009;-76
2023/12/17 04:14:03;;;;;;;9.25;4.25;;;17.10;99.90;;;;;;4593494;19;20006;-76
2023/12/17 04:15:37;;;;;;;10.77;4.88;;;17.10;99.90;;;;;;4594420;19;19999;-76
2023/12/17 04:17:11;;;;;;;8.27;3.83;;;17.10;99.90;;;;;;4593225;19;20473;-76
2023/12/17 04:18:46;;;;;;;8.05;4.45;;;17.10;99.90;;;;;;4595041;19;20303;-76
2023/12/17 04:20:20;;;;;;;10.32;4.00;;;17.10;99.90;;;;;;4594885;19;20006;-76
2023/12/17 04:21:55;;;;;;;8.40;4.93;;;17.10;99.90;;;;;;4594663;19;20007;-76
2023/12/17 04:23:31;;;;;;;9.13;4.05;;;17.10;99.90;;;;;;4594947;19;20018;-76
2023/12/17 04:25:05;;;;;;;11.57;4.22;;;17.10;99.90;;;;;;4594465;19;20010;-76
2023/12/17 04:26:39;;;;;;;7.55;4.13;;;17.10;99.90;;;;;;4593939;19;20010;-76
2023/12/17 04:28:15;;;;;;;9.27;4.82;;;17.10;99.90;;;;;;4594758;19;20304;-76
2023/12/17 04:29:50;;;;;;;7.45;4.03;;;17.10;99.90;;;;;;4594370;19;20027;-76
2023/12/17 04:31:24;;;;;;;9.25;4.13;;;17.10;99.90;;;;;;4594429;19;20087;-76
2023/12/17 04:32:59;;;;;;;11.63;4.72;;;17.10;99.90;;;;;;4593350;19;20007;-76
2023/12/17 04:34:33;;;;;;;10.80;4.22;;;17.10;99.90;;;;;;4594369;19;20399;-76
2023/12/17 04:36:09;;;;;;;10.73;4.43;;;17.10;99.90;;;;;;4594370;19;20003;-76
2023/12/17 04:37:44;;;;;;;10.50;4.20;;;17.10;99.90;;;;;;4594370;19;20006;-76
2023/12/17 04:39:20;;;;;;;7.88;3.88;;;17.00;99.90;;;;;;4594569;19;20425;-76
2023/12/17 04:40:54;;;;;;;8.20;4.22;;;17.00;99.90;;;;;;4594048;19;20002;-75
2023/12/17 04:42:30;;;;;;;10.05;4.50;;;17.00;99.90;;;;;;4594090;19;20007;-76
2023/12/17 04:44:04;;;;;;;8.30;4.05;;;17.00;99.90;;;;;;4592257;19;20003;-76
2023/12/17 04:45:38;;;;;;;10.50;4.25;;;17.00;99.90;;;;;;4594121;19;20010;-76
2023/12/17 04:47:14;;;;;;;10.10;4.13;;;17.00;99.90;;;;;;4593048;19;20418;-76
2023/12/17 04:48:49;;;;;;;11.77;5.40;;;17.00;99.90;;;;;;4594389;19;20003;-76
2023/12/17 04:50:24;;;;;;;8.80;4.47;;;17.00;99.90;;;;;;4594034;19;20002;-76
2023/12/17 04:52:00;;;;;;;7.00;3.63;;;17.00;99.90;;;;;;4593716;19;20021;-76
2023/12/17 04:53:34;;;;;;;10.00;4.80;;;17.00;99.90;;;;;;4594000;19;20013;-76
2023/12/17 04:55:08;;;;;;;9.48;4.53;;;17.00;99.90;;;;;;4593943;19;20006;-76
2023/12/17 04:56:44;;;;;;;8.00;3.70;;;17.00;99.90;;;;;;4593327;19;20010;-76
2023/12/17 04:58:19;;;;;;;10.25;4.47;;;16.90;99.90;;;;;;4593886;19;20002;-76
2023/12/17 04:59:53;;;;;;;7.43;3.65;;;16.90;99.90;;;;;;4594097;19;19999;-76
2023/12/17 05:01:30;;;;;;;8.45;4.28;;;16.90;99.90;;;;;;4593948;19;20013;-76
2023/12/17 05:03:05;;;;;;;9.88;3.67;;;16.90;99.90;;;;;;4594059;19;20021;-76
2023/12/17 05:04:39;;;;;;;9.20;3.90;;;16.90;99.90;;;;;;4593793;19;20074;-76
2023/12/17 05:06:15;;;;;;;7.78;4.18;;;16.90;99.90;;;;;;4593502;19;20327;-76
2023/12/17 05:07:49;;;;;;;9.00;4.55;;;16.90;99.90;;;;;;4593744;19;20315;-76
2023/12/17 05:09:23;;;;;;;7.30;3.92;;;16.90;99.90;;;;;;4593885;19;20002;-76
2023/12/17 05:10:58;;;;;;;7.80;3.95;;;16.80;99.90;;;;;;4593676;19;20003;-75
2023/12/17 05:12:33;;;;;;;9.82;3.50;;;16.90;99.90;;;;;;4592732;19;20030;-75
2023/12/17 05:14:08;;;;;;;8.63;4.40;;;16.90;99.90;;;;;;4593832;19;20323;-75
2023/12/17 05:15:44;;;;;;;8.98;3.70;;;16.80;99.90;;;;;;4593555;19;20304;-75
2023/12/17 05:17:18;;;;;;;8.75;3.45;;;16.80;99.90;;;;;;4591116;19;20449;-75
2023/12/17 05:18:52;;;;;;;8.45;3.40;;;16.80;99.90;;;;;;4593108;19;20425;-75
2023/12/17 05:20:27;;;;;;;7.35;3.88;;;16.80;99.90;;;;;;4593546;19;20005;-76
2023/12/17 05:22:02;;;;;;;8.48;4.43;;;16.80;99.90;;;;;;4593644;19;20011;-76
2023/12/17 05:23:37;;;;;;;10.02;4.82;;;16.80;99.90;;;;;;4593611;19;20010;-75
2023/12/17 05:25:13;;;;;;;8.07;4.25;;;16.80;99.90;;;;;;4592358;19;20039;-75
2023/12/17 05:26:47;;;;;;;7.82;4.10;;;16.80;99.90;;;;;;4592395;19;19999;-76
2023/12/17 05:28:21;;;;;;;8.18;4.72;;;16.80;99.90;;;;;;4593281;19;20005;-75
2023/12/17 05:29:56;;;;;;;8.18;3.65;;;16.80;99.90;;;;;;4593525;19;20436;-76
2023/12/17 05:31:30;;;;;;;8.25;3.97;;;16.80;99.90;;;;;;4593250;19;20003;-75
2023/12/17 05:33:04;;;;;;;6.55;3.80;;;16.80;99.90;;;;;;4592032;19;20062;-76
2023/12/17 05:34:41;;;;;;;7.88;3.67;;;16.80;99.90;;;;;;4593236;19;20003;-75
2023/12/17 05:36:16;;;;;;;6.82;3.75;;;16.70;99.90;;;;;;4593232;19;20002;-76
2023/12/17 05:37:50;;;;;;;6.65;3.70;;;16.70;99.90;;;;;;4593361;19;20151;-76
2023/12/17 05:39:25;;;;;;;7.03;3.22;;;16.80;99.90;;;;;;4593058;19;20024;-75
2023/12/17 05:40:59;;;;;;;8.50;3.25;;;16.80;99.90;;;;;;4592974;19;20310;-76
2023/12/17 05:42:37;;;;;;;5.80;3.00;;;17.00;99.90;;;;;;4592929;19;20009;-74
2023/12/17 05:44:12;;;;;;;8.10;3.70;;;17.00;99.90;;;;;;4591683;19;20007;-75
2023/12/17 05:45:47;;;;;;;6.20;3.88;;;17.10;99.90;;;;;;4592886;19;20034;-75
2023/12/17 05:47:21;;;;;;;4.65;2.95;;;17.20;99.90;;;;;;4591920;19;20406;-74
2023/12/17 05:48:57;;;;;;;7.00;2.75;;;17.30;99.90;;;;;;4592923;19;20010;-75
2023/12/17 05:50:31;;;;;;;7.65;3.75;;;17.30;99.90;;;;;;4592792;19;20427;-76
2023/12/17 05:52:07;;;;;;;5.80;2.72;;;17.40;99.90;;;;;;4592608;19;20426;-76
2023/12/17 05:53:42;;;;;;;8.23;3.40;;;17.40;99.90;;;;;;4591798;19;20006;-75
2023/12/17 05:55:17;;;;;;;7.03;3.20;;;17.40;99.90;;;;;;4591835;19;20003;-76
2023/12/17 05:56:51;;;;;;;5.63;3.13;;;17.50;99.90;;;;;;4592103;19;20002;-75
2023/12/17 05:58:26;;;;;;;7.05;3.35;;;17.50;99.90;;;;;;4593200;19;20010;-75
2023/12/17 06:00:01;;;;;;;7.65;3.63;;;17.50;99.90;;;;;;4592694;19;20095;-76
2023/12/17 06:01:36;;;;;;;7.15;3.60;;;17.60;99.90;;;;;;4592853;19;20002;-76
2023/12/17 06:03:11;;;;;;;6.75;2.75;;;17.60;99.90;;;;;;4592643;19;20032;-76
2023/12/17 06:04:46;;;;;;;7.22;2.95;;;17.60;99.90;;;;;;4592522;19;20010;-75
2023/12/17 06:06:20;;;;;;;6.00;3.17;;;17.60;99.90;;;;;;4592299;19;20006;-75
2023/12/17 06:07:56;;;;;;;5.05;3.13;;;17.50;99.90;;;;;;4592567;19;20011;-75
2023/12/17 06:09:30;;;;;;;8.02;3.22;;;17.50;99.90;;;;;;4591131;19;19999;-75
2023/12/17 06:11:04;;;;;;;7.68;3.50;;;17.50;99.90;;;;;;4592062;19;20003;-75
2023/12/17 06:12:40;;;;;;;6.10;3.00;;;17.50;99.90;;;;;;4591702;19;20299;-75
2023/12/17 06:14:14;;;;;;;6.65;2.97;;;17.50;99.90;;;;;;4592332;19;20007;-75
2023/12/17 06:15:48;;;;;;;5.03;3.08;;;17.50;99.90;;;;;;4592306;19;20007;-76
2023/12/17 06:17:24;;;;;;;5.45;3.15;;;17.50;99.90;;;;;;4589792;19;20015;-77
2023/12/17 06:18:58;;;;;;;7.43;3.40;;;17.50;99.90;;;;;;4591934;19;20037;-77
2023/12/17 06:20:33;;;;;;;8.20;2.95;;;17.50;99.90;;;;;;4592289;19;20292;-76
2023/12/17 06:22:11;;;;;;;4.75;2.95;;;17.50;99.90;;;;;;4592641;19;20026;-76
2023/12/17 06:23:45;;;;;;;6.47;3.10;;;17.50;99.90;;;;;;4592270;19;20007;-80
2023/12/17 06:25:21;;;;;;;5.35;2.90;;;17.50;99.90;;;;;;4592150;19;19998;-79
2023/12/17 06:26:56;;;;;;;6.05;3.05;;;17.40;99.90;;;;;;4591537;19;20010;-77
2023/12/17 06:28:30;;;;;;;6.60;3.35;;;17.40;99.90;;;;;;4592321;19;20423;-77
2023/12/17 06:30:06;;;;;;;7.60;3.28;;;17.40;99.90;;;;;;4592338;19;20009;-77
2023/12/17 06:31:41;;;;;;;6.20;3.40;;;17.40;99.90;;;;;;4592365;19;20084;-77
2023/12/17 06:33:15;;;;;;;6.30;2.95;;;17.40;99.90;;;;;;4592022;19;20306;-77
2023/12/17 06:34:50;;;;;;;8.55;2.88;;;17.40;99.90;;;;;;4591989;19;20002;-78
2023/12/17 06:36:25;;;;;;;7.95;4.00;;;17.30;99.90;;;;;;4591728;19;20014;-78
2023/12/17 06:37:59;;;;;;;7.63;3.58;;;17.40;99.90;;;;;;4592184;19;20005;-77
2023/12/17 06:39:33;;;;;;;8.35;3.53;;;17.30;99.90;;;;;;4591940;19;19998;-79
2023/12/17 06:41:12;;;;;;;5.03;2.70;;;17.30;99.90;;;;;;4592001;19;20084;-79
2023/12/17 06:42:46;;;;;;;5.20;2.95;;;17.30;99.90;;;;;;4592127;19;20302;-78
2023/12/17 06:44:20;;;;;;;6.22;3.20;;;17.30;99.90;;;;;;4591850;19;20351;-79
2023/12/17 06:45:56;;;;;;;6.00;3.28;;;17.30;99.90;;;;;;4591918;19;20034;-78
2023/12/17 06:47:30;;;;;;;7.78;3.47;;;17.30;99.90;;;;;;4590620;19;20212;-78
2023/12/17 06:49:04;;;;;;;5.15;2.90;;;17.30;99.90;;;;;;4591657;19;20021;-78
2023/12/17 06:50:39;;;;;;;5.30;2.60;;;17.30;99.90;;;;;;4591723;19;20002;-78
2023/12/17 06:52:14;;;;;;;5.93;3.47;;;17.20;99.90;;;;;;4591257;19;19998;-78
2023/12/17 06:53:47;;;;;;;4.88;2.92;;;17.20;99.90;;;;;;4591981;19;20002;-76
2023/12/17 06:55:23;;;;;;;5.63;2.95;;;17.20;99.90;;;;;;4591742;19;20003;-77
2023/12/17 06:56:57;;;;;;;5.35;2.97;;;17.20;99.90;;;;;;4590925;19;20006;-80
2023/12/17 06:58:31;;;;;;;5.78;3.00;;;17.20;99.90;;;;;;4591603;19;20003;-80
2023/12/17 07:00:09;;;;;;;6.78;2.78;;;17.20;99.90;;;;;;4591613;19;20328;-80
2023/12/17 07:01:44;;;;;;;5.63;3.22;;;17.20;99.90;;;;;;4591922;19;20436;-78
2023/12/17 07:03:19;;;;;;;5.18;2.70;;;17.20;99.90;;;;;;4590164;19;20010;-77
2023/12/17 07:04:55;;;;;;;6.40;2.90;;;17.10;99.90;;;;;;4590233;19;20023;-76
2023/12/17 07:06:30;;;;;;;6.90;3.15;;;17.10;99.90;;;;;;4591491;19;20044;-76
2023/12/17 07:08:05;;;;;;;6.55;3.35;;;17.10;99.90;;;;;;4596228;19;20010;-77
2023/12/17 07:09:40;;;;;;;4.45;2.33;;;17.10;99.90;;;;;;4596504;19;20003;-78
2023/12/17 07:11:15;;;;;;;5.82;2.55;;;17.10;99.90;;;;;;4596307;19;20437;-78
2023/12/17 07:12:49;;;;;;;5.43;3.05;;;17.10;99.90;;;;;;4594730;19;20006;-76
2023/12/17 07:14:24;;;;;;;6.00;2.78;;;17.10;99.90;;;;;;4595947;19;20002;-77
2023/12/17 07:15:58;;;;;;;4.93;2.90;;;17.10;99.90;;;;;;4596242;19;20073;-78
2023/12/17 07:17:34;;;;;;;7.72;2.83;;;17.00;99.90;;;;;;4593954;19;20015;-79
2023/12/17 07:19:12;;;;;;;7.97;2.53;;;17.00;99.90;;;;;;4596028;19;20013;-76
2023/12/17 07:20:45;;;;;;;5.13;2.70;;;17.00;99.90;;;;;;4595985;19;19999;-78
2023/12/17 07:22:22;;;;;;;6.57;2.75;;;16.90;99.90;;;;;;4596435;19;20074;-78
2023/12/17 07:23:57;;;;;;;4.43;2.70;;;16.90;99.90;;;;;;4595933;19;20023;-79
2023/12/17 07:25:32;;;;;;;4.13;2.40;;;17.00;99.90;;;;;;4595813;19;19998;-77
2023/12/17 07:27:06;;;;;;;3.60;2.45;;;17.00;99.90;;;;;;4594874;19;20022;-78
2023/12/17 07:28:42;;;;;;;4.97;2.45;;;17.20;99.90;;;;;;4596118;19;20018;-79
2023/12/17 07:30:16;;;;;;;5.53;2.58;;;17.30;99.90;;;;;;4594414;19;20070;-79
2023/12/17 07:31:51;;;;;;;5.38;2.72;;;17.40;99.90;;;;;;4595132;19;20047;-79
2023/12/17 07:33:26;;;;;;;5.07;2.97;;;17.50;99.90;;;;;;4596056;19;20020;-78
2023/12/17 07:35:01;;;;;;;4.35;2.42;;;17.60;99.90;;;;;;4595656;19;20022;-78
2023/12/17 07:36:35;;;;;;;6.75;2.50;;;17.80;99.90;;;;;;4593514;19;20392;-78
2023/12/17 07:38:10;;;;;;;6.38;2.60;;;17.90;99.90;;;;;;4595305;19;19994;-78
2023/12/17 07:39:44;;;;;;;5.18;2.50;;;18.00;99.90;;;;;;4595572;19;20481;-78
2023/12/17 07:41:19;;;;;;;4.95;3.08;;;18.00;99.90;;;;;;4595469;19;20002;-79
2023/12/17 07:42:54;;;;;;;3.67;2.42;;;18.00;99.90;;;;;;4595517;19;20023;-77
2023/12/17 07:44:30;;;;;;;5.93;2.70;;;18.00;99.90;;;;;;4595665;19;20419;-78
2023/12/17 07:46:05;;;;;;;3.95;2.40;;;18.00;99.90;;;;;;4595505;19;20010;-78
2023/12/17 07:47:44;;;;;;;7.38;2.28;;;17.90;99.90;;;;;;4594406;19;20029;-78
2023/12/17 07:49:19;;;;;;;8.20;3.17;;;17.80;99.90;;;;;;4595120;19;20015;-78
2023/12/17 07:50:54;;;;;;;4.78;2.50;;;17.80;99.90;;;;;;4595584;19;20314;-78
2023/12/17 07:52:30;;;;;;;7.05;2.33;;;17.80;99.90;;;;;;4594504;19;20011;-78
2023/12/17 07:54:04;;;;;;;6.05;2.65;;;17.80;99.90;;;;;;4595205;19;20066;-78
2023/12/17 07:55:39;;;;;;;5.78;2.53;;;17.70;99.90;;;;;;4595206;19;20005;-78
2023/12/17 07:57:15;;;;;;;4.25;2.35;;;17.70;99.90;;;;;;4593930;19;20069;-78
2023/12/17 07:58:50;;;;;;;4.07;2.38;;;17.60;99.90;;;;;;4595184;19;20310;-78
2023/12/17 08:00:25;;;;;;;3.85;2.47;;;17.60;99.90;;;;;;4595105;19;20092;-78
2023/12/17 08:02:00;;;;;;;11.35;3.20;;;17.60;99.90;;;;;;4595410;19;20014;-78
2023/12/17 08:03:34;;;;;;;6.88;2.72;;;17.50;99.90;;;;;;4595005;19;20019;-78
2023/12/17 08:05:09;;;;;;;4.30;2.75;;;17.50;99.90;;;;;;4595016;19;19998;-78
2023/12/17 08:06:44;;;;;;;6.95;2.72;;;17.50;99.90;;;;;;4592812;19;20327;-80
2023/12/17 08:08:18;;;;;;;9.40;3.58;;;17.50;99.90;;;;;;4594592;19;20031;-79
2023/12/17 08:09:52;;;;;;;6.72;2.90;;;17.60;99.90;;;;;;4594829;19;20003;-79
2023/12/17 08:11:28;;;;;;;5.32;3.08;;;17.60;99.90;;;;;;4594964;19;20006;-78
2023/12/17 08:13:03;;;;;;;8.77;3.20;;;17.70;99.90;;;;;;4593478;19;20429;-77
2023/12/17 08:14:38;;;;;;;8.60;3.63;;;17.90;99.90;;;;;;4594746;19;20336;-80
2023/12/17 08:16:13;;;;;;;7.25;3.55;;;18.00;99.90;;;;;;4594624;19;20003;-79
2023/12/17 08:17:49;;;;;;;8.80;3.03;;;18.10;99.90;;;;;;4593146;19;20015;-79
2023/12/17 08:19:23;;;;;;;6.68;3.08;;;18.20;99.90;;;;;;4594793;19;20031;-81
2023/12/17 08:20:59;;;;;;;9.40;3.35;;;18.40;99.90;;;;;;4594790;19;20422;-78
2023/12/17 08:22:33;;;;;;;6.07;3.10;;;18.40;99.90;;;;;;4594499;19;20017;-78
2023/12/17 08:24:08;;;;;;;9.57;3.90;;;18.50;99.90;;;;;;4594846;19;20003;-78
2023/12/17 08:25:43;;;;;;;8.65;3.65;;;18.60;99.90;;;;;;4594645;19;20003;-78
2023/12/17 08:27:17;;;;;;;6.85;3.25;;;18.70;99.90;;;;;;4593587;19;20006;-78
2023/12/17 08:28:51;;;;;;;7.68;3.40;;;18.70;99.90;;;;;;4594463;19;19998;-78